createdAt,value
2018-12-01T00:00:23.309Z,99.90
2018-12-01T00:02:58.405Z,99.90
2018-12-01T00:05:33.232Z,99.90
2018-12-01T00:08:08.061Z,99.90
2018-12-01T00:10:42.989Z,99.90
2018-12-01T00:13:17.732Z,99.90
2018-12-01T00:15:52.592Z,99.90
2018-12-01T00:18:28.040Z,99.90
2018-12-01T00:21:03.631Z,99.90
2018-12-01T00:23:38.472Z,99.90
2018-12-01T00:26:13.346Z,99.90
2018-12-01T00:28:48.107Z,99.90
2018-12-01T00:31:23.088Z,99.90
2018-12-01T00:33:57.892Z,99.90
2018-12-01T00:36:32.588Z,99.90
2018-12-01T00:39:08.223Z,99.90
2018-12-01T00:41:42.910Z,99.90
2018-12-01T00:44:17.673Z,99.90
2018-12-01T00:46:52.319Z,99.90
2018-12-01T00:49:27.087Z,99.90
2018-12-01T00:52:02.079Z,99.90
2018-12-01T00:54:36.809Z,99.90
2018-12-01T00:57:11.540Z,99.90
2018-12-01T00:59:46.287Z,99.90
2018-12-01T01:02:26.351Z,99.90
2018-12-01T01:05:01.591Z,99.90
2018-12-01T01:07:36.439Z,99.90
2018-12-01T01:10:11.891Z,99.90
2018-12-01T01:12:47.042Z,99.90
2018-12-01T01:15:21.812Z,99.90
2018-12-01T01:17:57.012Z,99.90
2018-12-01T01:20:31.696Z,99.90
2018-12-01T01:23:06.648Z,99.90
2018-12-01T01:25:41.248Z,99.90
2018-12-01T01:28:15.972Z,99.90
2018-12-01T01:30:50.789Z,99.90
2018-12-01T01:46:31.337Z,99.90
2018-12-01T01:49:06.917Z,99.90
2018-12-01T01:51:41.712Z,99.70
2018-12-01T01:54:16.606Z,99.90
2018-12-01T01:56:52.080Z,99.90
2018-12-01T01:59:26.877Z,99.90
2018-12-01T02:02:01.728Z,99.90
2018-12-01T02:04:36.688Z,99.90
2018-12-01T02:07:11.503Z,99.90
2018-12-01T02:09:46.430Z,99.90
2018-12-01T02:12:21.309Z,99.60
2018-12-01T02:14:56.124Z,99.40
2018-12-01T02:17:30.901Z,99.20
2018-12-01T02:20:09.355Z,99.50
2018-12-01T02:22:50.569Z,99.00
2018-12-01T02:25:25.294Z,99.20
2018-12-01T02:27:59.984Z,99.50
2018-12-01T02:30:34.805Z,99.50
2018-12-01T02:33:09.643Z,99.30
2018-12-01T02:35:44.383Z,99.40
2018-12-01T02:38:19.186Z,99.60
2018-12-01T02:40:54.449Z,99.80
2018-12-01T02:43:29.275Z,99.90
2018-12-01T02:46:15.403Z,99.90
2018-12-01T02:48:50.208Z,99.90
2018-12-01T02:51:25.027Z,99.90
2018-12-01T02:53:59.872Z,99.90
2018-12-01T02:56:35.235Z,99.90
2018-12-01T02:59:10.657Z,99.90
2018-12-01T03:01:45.554Z,99.90
2018-12-01T03:04:20.281Z,99.90
2018-12-01T03:06:55.120Z,99.90
2018-12-01T03:09:29.864Z,99.90
2018-12-01T03:12:05.684Z,99.90
2018-12-01T03:14:40.522Z,99.80
2018-12-01T03:17:15.493Z,99.50
2018-12-01T03:19:50.473Z,99.50
2018-12-01T03:22:25.205Z,99.40
2018-12-01T03:25:00.217Z,99.50
2018-12-01T03:27:35.057Z,99.80
2018-12-01T03:30:11.212Z,99.60
2018-12-01T03:32:46.078Z,99.60
2018-12-01T03:35:28.481Z,99.70
2018-12-01T03:38:03.102Z,99.50
2018-12-01T03:40:43.675Z,99.50
2018-12-01T03:43:19.077Z,99.60
2018-12-01T03:45:53.759Z,99.80
2018-12-01T03:48:28.751Z,99.80
2018-12-01T03:51:03.549Z,99.70
2018-12-01T03:53:38.483Z,99.80
2018-12-01T03:56:13.203Z,99.70
2018-12-01T03:58:48.220Z,99.60
2018-12-01T04:01:23.121Z,99.90
2018-12-01T04:03:57.992Z,99.70
2018-12-01T04:06:32.870Z,99.60
2018-12-01T04:09:14.468Z,99.90
2018-12-01T04:11:49.051Z,99.90
2018-12-01T04:14:23.911Z,99.90
2018-12-01T04:16:58.644Z,99.90
2018-12-01T04:19:33.409Z,99.90
2018-12-01T04:22:08.089Z,99.90
2018-12-01T04:24:42.731Z,99.90
2018-12-01T04:27:17.539Z,99.90
2018-12-01T04:29:52.368Z,99.90
2018-12-01T04:32:27.195Z,99.90
2018-12-01T04:35:02.328Z,99.90
2018-12-01T04:37:37.260Z,99.90
2018-12-01T04:40:12.077Z,99.90
2018-12-01T04:42:47.672Z,99.90
2018-12-01T04:45:22.311Z,99.90
2018-12-01T04:47:57.152Z,99.90
2018-12-01T04:50:32.010Z,99.50
2018-12-01T04:53:07.481Z,99.20
2018-12-01T04:55:42.332Z,99.20
2018-12-01T04:58:17.040Z,99.20
2018-12-01T05:00:51.933Z,99.10
2018-12-01T05:03:26.791Z,99.10
2018-12-01T05:06:01.694Z,99.10
2018-12-01T05:08:36.520Z,99.00
2018-12-01T05:11:11.470Z,99.00
2018-12-01T05:13:46.384Z,98.80
2018-12-01T05:16:21.159Z,98.60
2018-12-01T05:18:56.138Z,98.60
2018-12-01T05:21:31.032Z,98.80
2018-12-01T05:24:05.957Z,98.70
2018-12-01T05:26:41.262Z,98.70
2018-12-01T05:29:15.647Z,98.60
2018-12-01T05:31:50.420Z,97.30
2018-12-01T05:34:26.007Z,97.50
2018-12-01T05:37:00.855Z,96.90
2018-12-01T05:39:35.896Z,97.10
2018-12-01T05:42:10.997Z,96.80
2018-12-01T05:44:45.661Z,96.00
2018-12-01T05:47:20.717Z,96.00
2018-12-01T05:50:00.033Z,95.80
2018-12-01T05:52:35.210Z,95.30
2018-12-01T05:55:12.255Z,94.90
2018-12-01T05:57:47.685Z,94.80
2018-12-01T06:00:23.068Z,95.00
2018-12-01T06:02:57.763Z,95.30
2018-12-01T06:05:32.611Z,94.80
2018-12-01T06:08:07.886Z,95.50
2018-12-01T06:10:42.585Z,95.60
2018-12-01T06:13:18.204Z,96.30
2018-12-01T06:15:52.926Z,96.90
2018-12-01T06:18:27.673Z,97.40
2018-12-01T06:21:02.596Z,95.70
2018-12-01T06:23:37.825Z,94.70
2018-12-01T06:26:13.617Z,94.50
2018-12-01T06:28:48.641Z,94.40
2018-12-01T06:31:23.469Z,95.10
2018-12-01T06:33:58.507Z,95.40
2018-12-01T06:36:33.666Z,95.80
2018-12-01T06:39:09.108Z,95.80
2018-12-01T06:41:44.281Z,96.10
2018-12-01T06:44:19.280Z,95.90
2018-12-01T06:46:54.114Z,95.50
2018-12-01T06:49:29.019Z,95.50
2018-12-01T06:52:04.214Z,95.40
2018-12-01T06:54:38.960Z,95.80
2018-12-01T06:57:13.817Z,96.30
2018-12-01T06:59:48.635Z,96.40
2018-12-01T07:02:23.441Z,94.90
2018-12-01T07:04:58.358Z,94.70
2018-12-01T07:07:33.399Z,94.80
2018-12-01T07:10:11.318Z,94.80
2018-12-01T07:12:50.500Z,94.90
2018-12-01T07:15:41.477Z,94.50
2018-12-01T07:18:27.911Z,94.90
2018-12-01T07:21:02.678Z,94.60
2018-12-01T07:23:37.878Z,94.80
2018-12-01T07:26:13.035Z,94.60
2018-12-01T07:28:48.197Z,94.50
2018-12-01T07:31:23.194Z,94.30
2018-12-01T07:33:57.997Z,94.20
2018-12-01T07:36:32.842Z,94.00
2018-12-01T07:39:08.955Z,94.10
2018-12-01T07:41:44.247Z,94.20
2018-12-01T07:44:19.365Z,94.30
2018-12-01T07:46:54.597Z,94.40
2018-12-01T07:49:29.702Z,94.20
2018-12-01T07:52:05.332Z,94.00
2018-12-01T07:54:40.410Z,94.00
2018-12-01T07:57:15.543Z,93.60
2018-12-01T07:59:50.709Z,92.20
2018-12-01T08:02:25.607Z,91.60
2018-12-01T08:05:00.469Z,91.20
2018-12-01T08:07:35.481Z,91.10
2018-12-01T08:10:12.778Z,88.80
2018-12-01T08:12:47.606Z,84.00
2018-12-01T08:15:22.402Z,89.70
2018-12-01T08:17:57.574Z,90.50
2018-12-01T08:20:32.489Z,81.70
2018-12-01T08:23:07.335Z,84.20
2018-12-01T08:25:42.778Z,84.70
2018-12-01T08:28:19.422Z,86.10
2018-12-01T08:30:54.176Z,85.90
2018-12-01T08:33:28.935Z,86.10
2018-12-01T08:36:03.756Z,85.20
2018-12-01T08:38:38.392Z,83.70
2018-12-01T08:41:13.169Z,82.10
2018-12-01T08:43:47.902Z,80.70
2018-12-01T08:46:22.701Z,80.30
2018-12-01T08:48:58.256Z,78.50
2018-12-01T08:51:33.236Z,78.20
2018-12-01T08:54:08.566Z,77.20
2018-12-01T08:56:43.250Z,74.80
2018-12-01T08:59:18.666Z,72.90
2018-12-01T09:01:54.145Z,71.50
2018-12-01T09:04:29.528Z,71.10
2018-12-01T09:07:04.942Z,70.80
2018-12-01T09:09:40.385Z,70.90
2018-12-01T09:12:15.721Z,73.00
2018-12-01T09:14:51.059Z,73.30
2018-12-01T09:17:26.402Z,75.30
2018-12-01T09:20:01.809Z,75.50
2018-12-01T09:22:36.986Z,71.90
2018-12-01T09:25:16.665Z,69.00
2018-12-01T09:27:51.820Z,67.50
2018-12-01T09:30:29.428Z,68.40
2018-12-01T09:33:04.814Z,67.30
2018-12-01T09:35:40.006Z,67.20
2018-12-01T09:38:15.305Z,64.00
2018-12-01T09:40:50.695Z,60.00
2018-12-01T09:43:26.257Z,59.40
2018-12-01T09:46:01.596Z,59.40
2018-12-01T09:48:36.774Z,57.30
2018-12-01T09:51:12.184Z,56.40
2018-12-01T09:53:47.562Z,55.90
2018-12-01T09:56:22.935Z,55.30
2018-12-01T09:58:58.374Z,54.40
2018-12-01T10:01:33.792Z,53.30
2018-12-01T10:04:09.214Z,52.40
2018-12-01T10:06:44.520Z,53.50
2018-12-01T10:09:19.756Z,52.30
2018-12-01T10:11:55.265Z,53.00
2018-12-01T10:14:30.724Z,51.30
2018-12-01T10:17:06.211Z,51.60
2018-12-01T10:19:41.861Z,53.20
2018-12-01T10:22:17.229Z,55.50
2018-12-01T10:24:52.619Z,55.00
2018-12-01T10:27:27.961Z,55.00
2018-12-01T10:30:04.240Z,52.40
2018-12-01T10:32:39.604Z,51.40
2018-12-01T10:35:16.721Z,50.90
2018-12-01T10:39:03.732Z,49.80
2018-12-01T10:41:38.844Z,51.20
2018-12-01T10:44:14.194Z,51.70
2018-12-01T10:46:49.485Z,50.30
2018-12-01T10:49:24.790Z,50.40
2018-12-01T10:52:00.120Z,51.40
2018-12-01T10:54:35.584Z,50.80
2018-12-01T10:57:11.026Z,47.80
2018-12-01T10:59:46.713Z,50.30
2018-12-01T11:02:27.455Z,51.00
2018-12-01T11:05:02.935Z,50.60
2018-12-01T11:07:38.410Z,52.00
2018-12-01T11:10:13.655Z,49.80
2018-12-01T11:12:48.997Z,54.60
2018-12-01T11:15:24.452Z,56.90
2018-12-01T11:18:00.086Z,58.00
2018-12-01T11:20:42.280Z,56.50
2018-12-01T11:23:17.697Z,54.90
2018-12-01T11:25:53.023Z,55.70
2018-12-01T11:28:28.786Z,54.10
2018-12-01T11:31:04.127Z,56.80
2018-12-01T11:33:39.466Z,55.70
2018-12-01T11:36:14.817Z,57.10
2018-12-01T11:38:50.184Z,54.20
2018-12-01T11:41:25.510Z,53.90
2018-12-01T11:44:00.774Z,54.20
2018-12-01T11:46:36.612Z,58.00
2018-12-01T11:49:12.287Z,58.80
2018-12-01T11:51:47.692Z,59.80
2018-12-01T11:54:23.313Z,57.60
2018-12-01T11:56:58.874Z,55.40
2018-12-01T11:59:34.258Z,54.10
2018-12-01T12:02:10.105Z,51.70
2018-12-01T12:04:45.468Z,52.30
2018-12-01T12:07:32.028Z,54.30
2018-12-01T12:10:08.179Z,54.50
2018-12-01T12:12:43.626Z,51.60
2018-12-01T12:15:19.972Z,50.30
2018-12-01T12:17:57.172Z,50.20
2018-12-01T12:20:32.699Z,48.40
2018-12-01T12:23:08.716Z,49.80
2018-12-01T12:25:44.582Z,46.40
2018-12-01T12:28:19.989Z,45.70
2018-12-01T12:30:55.799Z,45.00
2018-12-01T12:33:31.127Z,45.00
2018-12-01T12:36:06.846Z,43.60
2018-12-01T12:38:42.235Z,43.80
2018-12-01T12:41:17.525Z,44.90
2018-12-01T12:43:53.465Z,50.30
2018-12-01T12:46:28.996Z,48.10
2018-12-01T12:49:04.382Z,48.80
2018-12-01T12:51:39.661Z,48.20
2018-12-01T12:54:15.094Z,49.50
2018-12-01T12:56:50.559Z,48.90
2018-12-01T12:59:26.754Z,49.60
2018-12-01T13:02:02.070Z,46.60
2018-12-01T13:04:37.438Z,44.80
2018-12-01T13:07:12.832Z,45.90
2018-12-01T13:09:48.012Z,48.00
2018-12-01T13:12:23.428Z,49.20
2018-12-01T13:14:59.641Z,50.90
2018-12-01T13:17:34.988Z,52.20
2018-12-01T13:20:13.727Z,54.00
2018-12-01T13:22:54.527Z,55.30
2018-12-01T13:25:29.284Z,56.40
2018-12-01T13:28:14.710Z,57.00
2018-12-01T13:30:57.249Z,57.40
2018-12-01T13:33:33.527Z,56.50
2018-12-01T13:36:09.029Z,54.70
2018-12-01T13:38:45.138Z,51.90
2018-12-01T13:41:20.549Z,52.10
2018-12-01T13:43:56.041Z,52.70
2018-12-01T13:46:31.542Z,51.50
2018-12-01T13:49:07.106Z,50.80
2018-12-01T13:51:42.431Z,51.10
2018-12-01T13:54:18.028Z,49.90
2018-12-01T13:56:53.452Z,48.20
2018-12-01T13:59:28.850Z,47.40
2018-12-01T14:02:04.572Z,49.20
2018-12-01T14:04:41.122Z,52.00
2018-12-01T14:07:16.445Z,52.60
2018-12-01T14:09:51.941Z,52.90
2018-12-01T14:12:27.287Z,54.50
2018-12-01T14:15:03.033Z,54.60
2018-12-01T14:17:38.460Z,55.00
2018-12-01T14:20:16.089Z,55.50
2018-12-01T14:22:51.166Z,56.20
2018-12-01T14:25:26.143Z,57.10
2018-12-01T14:28:06.146Z,57.40
2018-12-01T14:30:41.128Z,57.70
2018-12-01T14:33:16.468Z,58.40
2018-12-01T14:35:50.830Z,58.90
2018-12-01T14:38:25.716Z,59.40
2018-12-01T14:41:00.731Z,59.40
2018-12-01T14:43:36.510Z,60.00
2018-12-01T14:46:11.487Z,60.40
2018-12-01T14:48:46.344Z,60.90
2018-12-01T14:51:21.922Z,61.50
2018-12-01T14:53:56.822Z,61.80
2018-12-01T14:56:31.616Z,62.60
2018-12-01T14:59:06.838Z,62.80
2018-12-01T15:01:41.763Z,62.70
2018-12-01T15:04:20.844Z,63.30
2018-12-01T15:06:55.650Z,63.90
2018-12-01T15:09:30.469Z,64.20
2018-12-01T15:12:06.165Z,64.40
2018-12-01T15:14:40.847Z,64.80
2018-12-01T15:17:15.561Z,65.00
2018-12-01T15:19:50.396Z,65.30
2018-12-01T15:22:25.132Z,65.50
2018-12-01T15:25:00.056Z,65.80
2018-12-01T15:27:34.815Z,67.40
2018-12-01T15:30:19.083Z,68.00
2018-12-01T15:32:55.686Z,68.00
2018-12-01T15:35:30.477Z,68.10
2018-12-01T15:38:06.973Z,68.10
2018-12-01T15:40:43.501Z,68.50
2018-12-01T15:43:18.825Z,70.20
2018-12-01T15:45:53.820Z,70.60
2018-12-01T15:48:28.784Z,71.70
2018-12-01T15:51:03.682Z,72.90
2018-12-01T15:53:38.860Z,73.10
2018-12-01T15:56:14.411Z,71.20
2018-12-01T15:58:50.284Z,71.10
2018-12-01T16:01:25.827Z,70.00
2018-12-01T16:04:01.024Z,70.70
2018-12-01T16:06:36.247Z,70.60
2018-12-01T16:09:11.530Z,72.40
2018-12-01T16:11:47.608Z,72.20
2018-12-01T16:14:23.102Z,71.90
2018-12-01T16:16:58.688Z,71.00
2018-12-01T16:19:33.840Z,72.70
2018-12-01T16:22:09.224Z,73.00
2018-12-01T16:24:44.394Z,73.90
2018-12-01T16:27:19.489Z,73.50
2018-12-01T16:29:54.543Z,73.70
2018-12-01T16:32:29.657Z,73.90
2018-12-01T16:35:06.233Z,74.20
2018-12-01T16:37:41.017Z,74.50
2018-12-01T16:40:19.177Z,74.80
2018-12-01T16:42:54.894Z,75.20
2018-12-01T16:45:29.937Z,75.40
2018-12-01T16:48:05.298Z,76.30
2018-12-01T16:50:40.506Z,76.10
2018-12-01T16:53:17.225Z,76.40
2018-12-01T16:55:52.409Z,76.30
2018-12-01T16:58:28.265Z,76.60
2018-12-01T17:01:03.460Z,76.70
2018-12-01T17:03:38.547Z,76.50
2018-12-01T17:06:17.704Z,76.50
2018-12-01T17:08:54.560Z,77.30
2018-12-01T17:11:29.545Z,76.00
2018-12-01T17:14:05.484Z,76.30
2018-12-01T17:16:40.503Z,76.50
2018-12-01T17:19:15.769Z,76.40
2018-12-01T17:21:50.831Z,76.30
2018-12-01T17:24:25.911Z,76.80
2018-12-01T17:27:00.998Z,76.50
2018-12-01T17:29:36.707Z,77.00
2018-12-01T17:32:10.862Z,77.30
2018-12-01T17:34:46.005Z,76.60
2018-12-01T17:37:20.995Z,76.00
2018-12-01T17:39:56.014Z,76.60
2018-12-01T17:42:31.085Z,78.20
2018-12-01T17:45:08.536Z,78.70
2018-12-01T17:47:43.433Z,78.60
2018-12-01T17:50:18.522Z,78.50
2018-12-01T17:52:55.358Z,78.40
2018-12-01T17:55:31.013Z,76.80
2018-12-01T17:58:08.273Z,77.70
2018-12-01T18:00:43.660Z,76.70
2018-12-01T18:03:18.802Z,77.20
2018-12-01T18:05:53.902Z,77.10
2018-12-01T18:08:29.019Z,78.90
2018-12-01T18:11:03.851Z,78.70
2018-12-01T18:13:38.876Z,77.20
2018-12-01T18:16:13.781Z,77.80
2018-12-01T18:18:48.961Z,76.40
2018-12-01T18:21:24.511Z,78.00
2018-12-01T18:23:59.639Z,78.80
2018-12-01T18:26:34.794Z,78.20
2018-12-01T18:29:09.819Z,77.40
2018-12-01T18:31:44.741Z,78.40
2018-12-01T18:34:19.827Z,80.10
2018-12-01T18:36:54.974Z,77.20
2018-12-01T18:39:29.764Z,78.40
2018-12-01T18:42:05.004Z,77.70
2018-12-01T18:44:40.194Z,77.50
2018-12-01T18:47:15.370Z,77.70
2018-12-01T18:49:50.439Z,75.10
2018-12-01T18:52:25.560Z,74.10
2018-12-01T18:55:00.467Z,77.30
2018-12-01T18:57:35.445Z,75.90
2018-12-01T19:00:15.842Z,74.50
2018-12-01T19:02:50.957Z,71.90
2018-12-01T19:05:26.222Z,72.40
2018-12-01T19:08:01.366Z,72.90
2018-12-01T19:10:36.742Z,72.70
2018-12-01T19:13:11.531Z,72.30
2018-12-01T19:15:46.976Z,72.80
2018-12-01T19:18:22.197Z,72.20
2018-12-01T19:20:57.556Z,71.80
2018-12-01T19:23:32.351Z,71.20
2018-12-01T19:26:07.273Z,71.30
2018-12-01T19:28:42.569Z,71.30
2018-12-01T19:31:17.782Z,71.60
2018-12-01T19:33:52.989Z,71.50
2018-12-01T19:36:27.991Z,71.00
2018-12-01T19:39:02.969Z,70.90
2018-12-01T19:41:38.340Z,70.60
2018-12-01T19:44:13.510Z,70.80
2018-12-01T19:46:48.685Z,71.20
2018-12-01T19:49:23.644Z,70.40
2018-12-01T19:51:58.863Z,70.80
2018-12-01T19:54:33.878Z,70.80
2018-12-01T19:57:08.779Z,70.50
2018-12-01T19:59:43.880Z,70.40
2018-12-01T20:02:18.769Z,71.00
2018-12-01T20:04:54.428Z,70.30
2018-12-01T20:07:29.458Z,71.10
2018-12-01T20:10:09.691Z,70.60
2018-12-01T20:12:50.035Z,71.50
2018-12-01T20:15:28.589Z,71.10
2018-12-01T20:18:07.192Z,71.90
2018-12-01T20:20:42.300Z,71.50
2018-12-01T20:23:17.336Z,71.00
2018-12-01T20:25:52.519Z,70.80
2018-12-01T20:28:27.574Z,71.20
2018-12-01T20:31:02.586Z,71.80
2018-12-01T20:33:37.732Z,71.20
2018-12-01T20:36:18.032Z,71.80
2018-12-01T20:39:35.266Z,70.40
2018-12-01T20:42:10.325Z,71.10
2018-12-01T20:44:45.509Z,71.50
2018-12-01T20:47:20.594Z,72.30
2018-12-01T20:49:55.486Z,71.70
2018-12-01T20:52:30.622Z,71.70
2018-12-01T20:55:10.874Z,72.00
2018-12-01T20:57:47.690Z,72.70
2018-12-01T21:00:22.820Z,72.40
2018-12-01T21:02:58.065Z,72.60
2018-12-01T21:05:33.169Z,71.30
2018-12-01T21:08:09.034Z,72.40
2018-12-01T21:10:48.990Z,71.80
2018-12-01T21:13:24.066Z,72.40
2018-12-01T21:15:59.190Z,71.80
2018-12-01T21:18:34.352Z,73.00
2018-12-01T21:21:09.581Z,73.20
2018-12-01T21:23:44.853Z,72.90
2018-12-01T21:26:19.977Z,72.60
2018-12-01T21:28:55.232Z,72.40
2018-12-01T21:31:30.332Z,72.00
2018-12-01T21:34:06.322Z,73.10
2018-12-01T21:36:41.204Z,72.70
2018-12-01T21:39:16.324Z,71.50
2018-12-01T21:41:51.068Z,71.70
2018-12-01T21:44:26.028Z,72.30
2018-12-01T21:47:01.241Z,72.10
2018-12-01T21:49:36.130Z,71.70
2018-12-01T21:52:11.168Z,72.00
2018-12-01T21:54:46.290Z,71.10
2018-12-01T21:57:21.231Z,71.50
2018-12-01T21:59:56.265Z,71.30
2018-12-01T22:02:31.041Z,71.20
2018-12-01T22:05:09.427Z,70.90
2018-12-01T22:07:44.565Z,71.60
2018-12-01T22:10:19.698Z,72.00
2018-12-01T22:12:54.771Z,71.80
2018-12-01T22:15:29.984Z,71.80
2018-12-01T22:18:05.189Z,72.30
2018-12-01T22:20:39.884Z,72.30
2018-12-01T22:23:15.179Z,72.20
2018-12-01T22:25:50.370Z,72.10
2018-12-01T22:28:25.701Z,72.60
2018-12-01T22:31:00.668Z,71.80
2018-12-01T22:33:35.920Z,71.60
2018-12-01T22:36:10.909Z,71.80
2018-12-01T22:38:45.787Z,71.10
2018-12-01T22:41:20.676Z,71.10
2018-12-01T22:43:55.580Z,71.20
2018-12-01T22:46:31.080Z,70.50
2018-12-01T22:49:06.789Z,69.90
2018-12-01T22:51:41.451Z,69.50
2018-12-01T22:54:16.811Z,69.00
2018-12-01T22:56:51.693Z,68.80
2018-12-01T22:59:26.733Z,68.60
2018-12-01T23:02:01.630Z,68.60
2018-12-01T23:04:37.133Z,68.80
2018-12-01T23:07:12.113Z,68.80
2018-12-01T23:09:47.776Z,68.80
2018-12-01T23:12:22.469Z,69.00
2018-12-01T23:14:57.155Z,67.60
2018-12-01T23:17:32.289Z,69.00
2018-12-01T23:20:16.177Z,70.20
2018-12-01T23:22:51.643Z,68.50
2018-12-01T23:25:26.552Z,68.40
2018-12-01T23:28:02.086Z,68.30
2018-12-01T23:30:37.809Z,70.10
2018-12-01T23:33:14.633Z,69.00
2018-12-01T23:35:49.843Z,69.50
2018-12-01T23:38:24.947Z,69.30
2018-12-01T23:40:59.918Z,69.60
2018-12-01T23:43:35.066Z,68.00
2018-12-01T23:46:09.976Z,68.70
2018-12-01T23:48:44.923Z,68.00
2018-12-01T23:51:20.046Z,67.40
2018-12-01T23:53:54.952Z,67.20
2018-12-01T23:56:29.927Z,67.20
2018-12-01T23:59:05.457Z,67.10
